Time;durP1;ratioP1;P1;durP2;ratioP2;P2;SDS_P1;SDS_P2;PMS_P1;PMS_P2;Temp;Humidity;BMP_temperature;BMP_pressure;BME280_temperature;BME280_humidity;BME280_pressure;Samples;Min_cycle;Max_cycle;Signal;HPM_P1;HPM_P2
2022/03/14 00:00:48;;;;;;;12.88;8.13;;;9.20;99.90;;;8.20;100.00;97774.28;5000337;28;20053;-72
2022/03/14 00:03:16;;;;;;;17.90;11.10;;;9.10;99.90;;;8.14;100.00;97788.22;5002442;28;20137;-72
2022/03/14 00:05:44;;;;;;;18.77;11.55;;;8.90;99.90;;;8.15;100.00;97802.84;5004602;28;20046;-72
2022/03/14 00:08:13;;;;;;;19.15;12.10;;;8.90;99.90;;;8.05;95.02;97810.03;5000515;28;20092;-73
2022/03/14 00:10:45;;;;;;;17.00;11.63;;;8.90;99.90;;;8.04;100.00;97821.25;5004227;28;20504;-72
2022/03/14 00:13:14;;;;;;;18.13;12.88;;;8.80;99.90;;;8.00;100.00;97832.56;5019489;28;20643;-72
2022/03/14 00:15:41;;;;;;;17.55;11.65;;;8.80;99.90;;;7.96;100.00;97846.50;5004867;28;20133;-70
2022/03/14 00:18:10;;;;;;;18.65;13.15;;;8.80;99.90;;;7.92;100.00;97850.03;5002137;28;20074;-71
2022/03/14 00:20:37;;;;;;;15.55;11.00;;;8.80;99.90;;;7.74;100.00;97872.06;5001438;28;20082;-71
2022/03/14 00:23:04;;;;;;;14.90;10.13;;;8.70;99.90;;;7.68;100.00;97895.47;5004664;28;20484;-72
2022/03/14 00:25:30;;;;;;;12.02;7.50;;;8.60;99.90;;;7.68;99.57;97861.88;5006068;28;20052;-71
2022/03/14 00:27:57;;;;;;;9.43;6.50;;;8.40;99.90;;;7.53;98.30;97874.31;5022277;28;20080;-71
2022/03/14 00:30:25;;;;;;;8.50;5.55;;;8.30;99.90;;;7.37;97.59;97865.25;5004830;28;20523;-71
2022/03/14 00:32:52;;;;;;;6.40;4.22;;;8.20;99.90;;;7.16;96.60;97915.69;5005542;28;20041;-71
2022/03/14 00:35:19;;;;;;;6.72;4.40;;;8.10;99.90;;;7.18;95.54;97897.56;5001905;28;20456;-72
2022/03/14 00:37:46;;;;;;;5.90;2.83;;;7.90;99.90;;;7.03;94.24;97904.78;5005392;28;20113;-71
2022/03/14 00:40:14;;;;;;;7.65;3.30;;;7.90;99.90;;;6.99;95.18;97920.38;5002108;28;20042;-71
2022/03/14 00:42:43;;;;;;;5.75;3.03;;;7.80;99.90;;;6.88;93.95;97899.97;5003359;28;20053;-71
2022/03/14 00:45:10;;;;;;;4.35;2.85;;;7.80;99.90;;;6.90;93.26;97898.22;5000059;28;20895;-71
2022/03/14 00:47:38;;;;;;;6.18;3.13;;;7.80;99.90;;;7.02;92.55;97882.44;5000264;28;20124;-71
2022/03/14 00:50:06;;;;;;;5.00;2.95;;;7.70;99.90;;;6.96;92.10;97900.66;5015888;28;20116;-70
2022/03/14 00:52:33;;;;;;;5.13;2.55;;;7.60;99.90;;;6.93;91.85;97910.19;5002067;28;20049;-70
2022/03/14 00:55:00;;;;;;;4.82;2.13;;;7.60;99.90;;;6.84;91.57;97913.81;5001827;28;20052;-71
2022/03/14 00:57:27;;;;;;;4.18;2.40;;;7.60;99.90;;;6.86;91.44;97919.81;5002963;28;20138;-71
2022/03/14 00:59:54;;;;;;;4.60;2.65;;;7.60;99.90;;;6.85;91.46;97915.53;5000854;28;20045;-71
2022/03/14 01:02:21;;;;;;;5.07;2.42;;;7.50;99.90;;;6.81;91.40;97919.06;5001897;28;20571;-71
2022/03/14 01:04:48;;;;;;;4.20;2.35;;;7.50;99.90;;;6.70;91.24;97925.31;4997648;28;20053;-70
2022/03/14 01:07:15;;;;;;;4.65;2.30;;;7.50;99.90;;;6.69;91.07;97933.94;5000690;28;20093;-71
2022/03/14 01:09:42;;;;;;;2.78;1.40;;;7.40;99.90;;;6.62;91.00;97923.78;4999269;28;20125;-71
2022/03/14 01:12:09;;;;;;;4.32;1.73;;;7.40;99.90;;;6.63;90.89;97939.19;5002951;28;20079;-70
2022/03/14 01:14:37;;;;;;;4.28;1.92;;;7.30;99.90;;;6.47;90.76;97936.09;5017075;28;20177;-71
2022/03/14 01:17:04;;;;;;;2.80;1.23;;;7.30;99.90;;;6.45;90.63;97966.25;5000307;28;20153;-71
2022/03/14 01:19:31;;;;;;;2.47;1.20;;;7.20;99.90;;;6.36;90.56;97968.97;5000658;28;20441;-70
2022/03/14 01:22:00;;;;;;;5.07;1.92;;;7.20;99.90;;;6.35;90.46;97971.59;5001880;28;20058;-70
2022/03/14 01:24:28;;;;;;;3.05;1.52;;;7.20;99.90;;;6.22;90.38;97979.56;5018110;28;20065;-71
2022/03/14 01:26:55;;;;;;;2.80;1.42;;;7.10;99.90;;;6.30;90.29;97974.28;5003704;28;20123;-71
2022/03/14 01:29:22;;;;;;;4.30;2.20;;;7.00;99.90;;;6.25;90.34;97987.25;5001411;28;20117;-70
2022/03/14 01:31:53;;;;;;;3.55;1.88;;;7.00;99.90;;;6.28;90.33;97982.03;4990075;28;20562;-71
2022/03/14 01:34:20;;;;;;;4.85;2.20;;;7.00;99.90;;;6.25;90.33;97987.25;4999323;28;20049;-71
2022/03/14 01:36:47;;;;;;;3.72;2.20;;;7.00;99.90;;;6.39;90.35;97983.56;4997781;28;20084;-70
2022/03/14 01:39:14;;;;;;;3.72;1.88;;;7.00;99.90;;;6.29;90.36;97993.19;4997657;28;20627;-71
2022/03/14 01:41:41;;;;;;;4.60;2.00;;;7.00;99.90;;;6.26;90.39;98004.41;5002054;28;20050;-71
2022/03/14 01:44:07;;;;;;;8.20;2.28;;;7.00;99.90;;;6.20;90.49;98020.00;4997729;28;20108;-71
2022/03/14 01:46:35;;;;;;;3.65;2.15;;;7.00;99.90;;;6.24;90.51;98006.16;4998258;28;20048;-71
2022/03/14 01:49:02;;;;;;;3.55;1.90;;;7.00;99.90;;;6.19;90.51;98009.72;5001337;28;20131;-70
2022/03/14 01:51:29;;;;;;;3.58;2.20;;;7.00;99.90;;;6.29;90.61;97998.34;5017033;28;20103;-71
2022/03/14 01:53:57;;;;;;;3.92;2.47;;;6.90;99.90;;;6.16;90.62;98023.50;5020328;28;20045;-70
2022/03/14 01:56:25;;;;;;;8.20;2.65;;;7.00;99.90;;;6.15;90.65;98026.94;5000556;28;21532;-71
2022/03/14 01:58:53;;;;;;;3.33;2.38;;;6.90;99.90;;;6.22;90.70;98030.25;5007437;28;20125;-71
2022/03/14 02:01:21;;;;;;;4.13;2.63;;;6.90;99.90;;;6.17;90.77;98024.34;4999384;28;20132;-71
2022/03/14 02:03:50;;;;;;;5.18;2.95;;;6.90;99.90;;;6.25;90.84;98028.50;5004538;28;20045;-71
2022/03/14 02:06:18;;;;;;;5.53;2.78;;;6.90;99.90;;;6.29;90.89;98029.28;5002510;28;20080;-70
2022/03/14 02:08:45;;;;;;;3.80;2.92;;;6.90;99.90;;;6.34;90.92;98032.63;4999907;28;20575;-70
2022/03/14 02:11:12;;;;;;;4.63;3.25;;;6.90;99.90;;;6.30;90.99;98032.72;5007043;28;20093;-71
2022/03/14 02:13:40;;;;;;;4.47;2.78;;;6.90;99.90;;;6.35;91.03;98034.31;5003239;28;20045;-70
2022/03/14 02:16:07;;;;;;;4.70;2.58;;;6.90;99.90;;;6.29;91.05;98047.31;5018374;28;20115;-71
2022/03/14 02:18:34;;;;;;;5.68;3.10;;;6.90;99.90;;;6.21;91.11;98049.19;5006911;28;20046;-71
2022/03/14 02:21:01;;;;;;;4.40;2.72;;;6.90;99.90;;;6.41;91.17;98047.13;5005650;28;20085;-71
2022/03/14 02:23:28;;;;;;;3.67;2.35;;;6.90;99.90;;;6.31;91.21;98042.16;5008643;28;20147;-72
2022/03/14 02:25:55;;;;;;;4.68;2.30;;;6.90;99.90;;;6.24;91.28;98041.41;5005285;28;20133;-71
2022/03/14 02:28:23;;;;;;;3.90;2.38;;;7.00;99.90;;;6.44;91.32;98043.63;4999075;28;20380;-71
2022/03/14 02:30:50;;;;;;;3.55;2.20;;;7.00;99.90;;;6.36;91.35;98038.59;5006868;28;20125;-71
2022/03/14 02:33:19;;;;;;;5.90;2.53;;;6.90;99.90;;;6.32;91.38;98051.56;5002969;28;20056;-70
2022/03/14 02:35:47;;;;;;;3.53;2.60;;;6.90;99.90;;;6.35;91.41;98054.09;5020047;28;20038;-71
2022/03/14 02:38:16;;;;;;;4.53;2.55;;;6.90;99.90;;;6.38;91.43;98061.78;5006996;28;20133;-71
2022/03/14 02:40:47;;;;;;;4.15;2.40;;;6.90;99.90;;;6.46;91.45;98065.09;5005222;28;20038;-71
2022/03/14 02:43:22;;;;;;;4.75;2.67;;;6.90;99.90;;;6.24;91.50;98062.03;5020426;28;20129;-71
2022/03/14 02:45:51;;;;;;;6.18;2.58;;;6.90;99.90;;;6.22;91.37;98084.41;5003431;28;20225;-71
2022/03/14 02:48:19;;;;;;;3.70;2.03;;;7.00;99.90;;;6.17;91.29;98093.94;5002835;28;20092;-71
2022/03/14 02:50:53;;;;;;;4.32;2.10;;;7.00;99.90;;;6.15;91.34;98088.81;5001264;28;20054;-71
2022/03/14 02:53:21;;;;;;;6.20;2.22;;;7.00;99.90;;;6.29;91.37;98073.09;5003221;28;20501;-71
2022/03/14 02:55:48;;;;;;;4.45;2.00;;;6.90;99.90;;;6.22;91.38;98074.94;5004006;28;20047;-71
2022/03/14 02:58:15;;;;;;;4.78;2.72;;;6.90;99.90;;;6.14;91.41;98075.97;4999559;28;20447;-71
2022/03/14 03:00:42;;;;;;;5.00;2.60;;;6.90;99.90;;;6.10;91.56;98087.19;5003514;28;20145;-70
2022/03/14 03:03:12;;;;;;;3.53;2.38;;;6.90;99.90;;;6.14;91.59;98094.00;5001668;28;20071;-71
2022/03/14 03:05:43;;;;;;;3.67;2.20;;;6.90;99.90;;;6.11;91.63;98092.28;5018328;28;20566;-70
2022/03/14 03:08:12;;;;;;;4.13;2.70;;;6.90;99.90;;;6.14;91.66;98096.59;5003084;28;20050;-69
2022/03/14 03:10:41;;;;;;;4.60;3.08;;;6.90;99.90;;;6.08;91.69;98100.94;5001629;28;20081;-69
2022/03/14 03:13:11;;;;;;;4.82;2.90;;;6.90;99.90;;;6.13;91.73;98105.16;5002973;28;20179;-71
2022/03/14 03:15:38;;;;;;;7.25;2.88;;;6.90;99.90;;;6.12;91.74;98124.94;5001606;28;20518;-70
2022/03/14 03:18:06;;;;;;;3.75;2.72;;;6.90;99.90;;;6.13;91.77;98131.78;5005691;28;20126;-69
2022/03/14 03:20:33;;;;;;;5.10;3.25;;;6.90;99.90;;;6.22;91.81;98126.47;5019786;28;20046;-71
2022/03/14 03:23:04;;;;;;;4.35;2.55;;;6.80;99.90;;;6.18;91.83;98127.44;5000182;28;20081;-69
2022/03/14 03:25:31;;;;;;;5.70;3.33;;;6.80;99.90;;;6.13;91.86;98136.94;5004493;28;20077;-70
2022/03/14 03:27:58;;;;;;;5.30;3.28;;;6.70;99.90;;;6.01;91.90;98144.88;5004808;28;20065;-72
2022/03/14 03:30:26;;;;;;;6.32;4.05;;;6.80;99.90;;;6.08;91.95;98143.91;5002950;28;20050;-72
2022/03/14 03:32:53;;;;;;;6.43;3.45;;;6.70;99.90;;;6.05;91.95;98143.97;5005616;28;20128;-72
2022/03/14 03:35:20;;;;;;;6.93;4.72;;;6.70;99.90;;;6.04;91.99;98149.97;5003238;28;20077;-72
2022/03/14 03:37:47;;;;;;;6.90;4.85;;;6.70;99.90;;;6.06;92.02;98155.97;5005896;28;20130;-72
2022/03/14 03:40:14;;;;;;;7.72;5.80;;;6.70;99.90;;;6.00;92.07;98177.53;5002615;28;20486;-72
2022/03/14 03:42:41;;;;;;;8.88;5.28;;;6.70;99.90;;;6.06;92.08;98181.72;5008719;28;20136;-72
2022/03/14 03:45:10;;;;;;;7.20;5.55;;;6.70;99.90;;;6.04;92.14;98184.34;5003626;28;20058;-72
2022/03/14 03:47:37;;;;;;;7.65;6.20;;;6.70;99.90;;;6.05;92.18;98193.78;5005504;28;20096;-72
2022/03/14 03:50:05;;;;;;;9.32;6.43;;;6.70;99.90;;;6.02;92.25;98206.72;5007589;28;20080;-72
2022/03/14 03:52:31;;;;;;;8.88;6.55;;;6.80;99.90;;;5.94;92.29;98213.69;5002553;28;20146;-72
2022/03/14 03:54:59;;;;;;;10.48;7.30;;;6.70;99.90;;;5.97;92.39;98215.38;5003952;28;20465;-70
2022/03/14 03:57:26;;;;;;;11.07;7.97;;;6.70;99.90;;;5.91;92.50;98229.16;5004971;28;20377;-72
2022/03/14 03:59:53;;;;;;;8.70;5.65;;;6.70;99.90;;;5.93;92.72;98229.13;5005498;28;20136;-72
2022/03/14 04:02:20;;;;;;;10.15;6.68;;;6.70;99.90;;;5.99;92.93;98217.03;5002994;28;20343;-72
2022/03/14 04:04:49;;;;;;;9.70;7.05;;;6.70;99.90;;;6.00;93.14;98228.22;5001081;28;20054;-72
2022/03/14 04:07:23;;;;;;;10.85;6.60;;;6.70;99.90;;;5.85;93.36;98232.66;5000178;28;20076;-72
2022/03/14 04:09:55;;;;;;;12.00;6.63;;;6.70;99.90;;;5.83;93.62;98231.81;5006914;28;20050;-71
2022/03/14 04:12:25;;;;;;;9.63;5.97;;;6.70;99.90;;;5.87;93.86;98235.22;5003739;28;20049;-71
2022/03/14 04:14:56;;;;;;;9.38;5.63;;;6.70;99.90;;;5.90;94.09;98224.88;5002660;28;20081;-72
2022/03/14 04:17:25;;;;;;;11.63;5.53;;;6.70;99.90;;;5.82;94.38;98240.44;5003701;28;20041;-71
2022/03/14 04:19:53;;;;;;;9.50;5.90;;;6.70;99.90;;;5.91;94.54;98239.47;5018125;28;20069;-72
2022/03/14 04:22:20;;;;;;;11.70;6.13;;;6.60;99.90;;;5.99;94.69;98241.97;5000803;28;20081;-71
2022/03/14 04:24:47;;;;;;;10.02;6.13;;;6.60;99.90;;;5.77;94.91;98236.19;5001353;28;20644;-71
2022/03/14 04:27:14;;;;;;;11.20;6.20;;;6.70;99.90;;;5.77;94.82;98241.34;5000747;28;20220;-71
2022/03/14 04:29:41;;;;;;;10.80;6.22;;;6.70;99.90;;;5.90;94.68;98237.75;5002435;28;20160;-72
2022/03/14 04:32:08;;;;;;;13.73;5.85;;;6.60;99.90;;;5.89;94.72;98250.69;5000472;28;20161;-72
2022/03/14 04:34:35;;;;;;;11.60;7.05;;;6.50;99.90;;;5.70;94.83;98243.16;5003511;28;20042;-71
2022/03/14 04:37:03;;;;;;;14.98;7.95;;;6.50;99.90;;;5.63;94.82;98254.41;5004950;28;20591;-72
2022/03/14 04:39:30;;;;;;;15.15;7.13;;;6.60;99.90;;;5.66;94.75;98244.94;5000466;28;20819;-72
2022/03/14 04:41:57;;;;;;;15.75;8.38;;;6.50;99.90;;;5.87;94.68;98243.81;5001758;28;20482;-71
2022/03/14 04:44:24;;;;;;;11.52;6.78;;;6.50;99.90;;;5.60;94.92;98254.44;4998676;28;20110;-71
2022/03/14 04:46:51;;;;;;;18.40;7.28;;;6.50;99.90;;;5.71;94.82;98260.34;4997740;28;20050;-72
2022/03/14 04:49:18;;;;;;;17.77;6.50;;;6.50;99.90;;;5.62;94.96;98255.28;5003738;28;20082;-70
2022/03/14 04:51:46;;;;;;;16.85;7.97;;;6.40;99.90;;;5.60;95.17;98263.03;5000889;28;20112;-70
2022/03/14 04:54:13;;;;;;;13.70;6.63;;;6.50;99.90;;;5.55;95.22;98246.78;5002849;28;20081;-71
2022/03/14 04:56:40;;;;;;;18.70;7.93;;;6.40;99.90;;;5.50;95.34;98260.59;5002996;28;20092;-70
2022/03/14 04:59:07;;;;;;;21.95;9.38;;;6.50;99.90;;;5.38;95.47;98266.72;5000786;28;20070;-71
2022/03/14 05:01:34;;;;;;;23.23;9.35;;;6.50;99.90;;;5.39;95.41;98266.69;5002548;28;20070;-71
2022/03/14 05:04:02;;;;;;;15.48;7.85;;;6.50;99.90;;;5.46;95.45;98267.50;4996490;28;20047;-71
2022/03/14 05:06:29;;;;;;;14.65;7.15;;;6.40;99.90;;;5.51;95.44;98255.41;4998704;28;20508;-71
2022/03/14 05:08:56;;;;;;;15.27;7.05;;;6.40;99.90;;;5.53;95.58;98269.13;5012394;28;20133;-71
2022/03/14 05:11:23;;;;;;;18.42;7.03;;;6.40;99.90;;;5.47;95.56;98270.91;5002656;28;20133;-71
2022/03/14 05:13:51;;;;;;;18.48;8.05;;;6.40;99.90;;;5.56;95.46;98266.50;4998557;28;20508;-71
2022/03/14 05:16:19;;;;;;;21.67;9.43;;;6.30;99.90;;;5.52;95.59;98276.84;5000944;28;20061;-71
2022/03/14 05:18:47;;;;;;;21.38;9.02;;;6.30;99.90;;;5.45;95.55;98286.38;5000600;28;20038;-71
2022/03/14 05:21:14;;;;;;;21.73;9.52;;;6.30;99.90;;;5.43;95.44;98288.97;5003381;28;20111;-71
2022/03/14 05:23:41;;;;;;;20.75;8.63;;;6.20;99.90;;;5.43;95.20;98296.69;5005476;28;20046;-71
2022/03/14 05:26:08;;;;;;;24.77;8.80;;;6.20;99.90;;;5.57;94.91;98296.53;5000233;28;20149;-71
2022/03/14 05:28:35;;;;;;;14.98;6.15;;;6.30;99.90;;;5.40;95.00;98285.56;5004120;28;20149;-71
2022/03/14 05:31:04;;;;;;;17.38;7.90;;;6.20;99.90;;;5.49;94.79;98302.66;5005477;28;20510;-71
2022/03/14 05:33:31;;;;;;;22.83;7.50;;;6.30;99.90;;;5.40;94.79;98313.88;4985617;28;20098;-71
2022/03/14 05:35:58;;;;;;;17.80;6.90;;;6.30;99.90;;;5.49;94.75;98318.09;5002230;28;20129;-71
2022/03/14 05:38:28;;;;;;;19.10;7.43;;;6.20;99.90;;;5.55;94.68;98323.19;5000360;28;20046;-71
2022/03/14 05:40:55;;;;;;;17.83;6.90;;;6.30;99.90;;;5.43;94.76;98327.59;5007116;28;20046;-71
2022/03/14 05:43:24;;;;;;;21.42;7.88;;;6.30;99.90;;;5.43;94.77;98330.16;5005414;28;20514;-71
2022/03/14 05:45:52;;;;;;;16.98;7.28;;;6.20;99.90;;;5.50;94.71;98343.00;5006098;28;20129;-71
2022/03/14 05:48:19;;;;;;;19.77;6.60;;;6.30;99.90;;;5.66;94.70;98340.22;5004341;28;20077;-71
2022/03/14 05:50:46;;;;;;;20.10;8.43;;;6.30;99.90;;;5.59;94.90;98346.31;5004695;28;20094;-71
2022/03/14 05:53:13;;;;;;;16.60;7.05;;;6.30;99.90;;;5.41;95.03;98349.06;5005658;28;20073;-71
2022/03/14 05:55:41;;;;;;;18.33;7.63;;;6.40;99.90;;;5.54;95.00;98344.66;5004006;28;20573;-71
2022/03/14 05:58:08;;;;;;;15.40;6.68;;;6.40;99.90;;;5.65;95.18;98347.97;5004563;28;20082;-70
2022/03/14 06:00:36;;;;;;;15.80;6.43;;;6.40;99.90;;;5.62;95.49;98351.44;5007620;28;20414;-71
2022/03/14 06:03:03;;;;;;;22.48;6.07;;;6.40;99.90;;;5.65;95.64;98356.53;5004809;28;20066;-71
2022/03/14 06:05:30;;;;;;;18.77;6.20;;;6.40;99.90;;;5.69;95.81;98354.78;5008181;28;20050;-71
2022/03/14 06:07:57;;;;;;;13.90;6.38;;;6.30;99.90;;;5.75;96.03;98356.47;5008757;28;20165;-71
2022/03/14 06:10:25;;;;;;;16.90;6.68;;;6.40;99.90;;;5.71;96.34;98360.78;5004815;28;20176;-71
2022/03/14 06:12:52;;;;;;;16.90;6.85;;;6.40;99.90;;;5.64;96.50;98372.88;5006026;28;20451;-71
2022/03/14 06:15:19;;;;;;;13.48;5.15;;;6.50;99.90;;;5.72;96.57;98369.34;5006990;28;20555;-71
2022/03/14 06:17:46;;;;;;;14.55;5.95;;;6.50;99.90;;;5.66;96.69;98373.72;5002165;28;20213;-71
2022/03/14 06:20:15;;;;;;;12.73;5.55;;;6.50;99.90;;;5.58;96.83;98372.06;5007946;28;20508;-71
2022/03/14 06:22:46;;;;;;;13.27;4.90;;;6.50;99.90;;;5.51;96.80;98378.16;5004179;28;20508;-71
2022/03/14 06:25:17;;;;;;;22.42;6.03;;;6.50;99.90;;;5.43;96.63;98379.09;5006772;28;20046;-71
2022/03/14 06:27:45;;;;;;;12.13;4.55;;;6.50;99.90;;;5.57;96.38;98383.25;5001981;28;20042;-72
2022/03/14 06:30:14;;;;;;;14.70;5.38;;;6.40;99.90;;;5.60;96.50;98380.66;5004278;28;20082;-71
2022/03/14 06:32:43;;;;;;;11.98;5.00;;;6.40;99.90;;;5.73;96.66;98381.38;5001319;28;20526;-71
2022/03/14 06:35:14;;;;;;;13.50;5.55;;;6.40;99.90;;;5.79;96.73;98392.47;5004214;28;20042;-71
2022/03/14 06:37:43;;;;;;;16.58;4.72;;;6.40;99.90;;;5.65;97.38;98391.75;5005290;28;20049;-72
2022/03/14 06:40:11;;;;;;;18.63;5.25;;;6.40;99.90;;;5.60;97.51;98401.25;5002959;28;20050;-72
2022/03/14 06:42:41;;;;;;;13.23;3.70;;;6.50;99.90;;;5.64;97.72;98413.22;5009110;28;20493;-71
2022/03/14 06:45:11;;;;;;;14.13;4.25;;;6.50;99.90;;;5.66;97.72;98406.34;5012367;28;20081;-71
2022/03/14 06:47:38;;;;;;;15.00;3.72;;;6.70;99.90;;;5.73;98.00;98412.31;5015639;28;20092;-71
2022/03/14 06:50:07;;;;;;;14.98;3.75;;;6.70;99.90;;;5.60;98.35;98414.97;5009329;28;20135;-72
2022/03/14 06:52:34;;;;;;;9.15;3.00;;;6.70;99.90;;;5.70;98.50;98420.88;5018771;28;20126;-71
2022/03/14 06:55:04;;;;;;;14.13;3.38;;;6.80;99.90;;;5.76;98.56;98414.84;5006997;28;20056;-71
2022/03/14 06:57:32;;;;;;;11.98;3.70;;;6.80;99.90;;;5.72;98.56;98413.16;5004013;28;20069;-71
2022/03/14 06:59:59;;;;;;;15.30;3.00;;;6.80;99.90;;;5.96;98.36;98417.25;5002497;28;20166;-72
2022/03/14 07:02:29;;;;;;;10.20;2.50;;;6.70;99.90;;;5.81;99.00;98420.78;4999132;28;20062;-71
2022/03/14 07:04:56;;;;;;;12.15;3.40;;;6.70;99.90;;;5.79;99.03;98413.09;5001412;28;20065;-71
2022/03/14 07:07:23;;;;;;;10.25;3.20;;;6.60;99.90;;;5.72;99.01;98420.88;5002089;28;20120;-71
2022/03/14 07:09:51;;;;;;;15.65;3.45;;;6.70;99.90;;;5.87;99.12;98426.72;5002386;28;20054;-72
2022/03/14 07:12:18;;;;;;;15.77;3.60;;;6.60;99.90;;;5.72;99.44;98437.19;5003356;28;20506;-71
2022/03/14 07:14:45;;;;;;;17.10;4.82;;;6.70;99.90;;;5.63;99.38;98438.16;5000907;28;20104;-71
2022/03/14 07:17:12;;;;;;;13.27;4.85;;;6.70;99.90;;;5.88;99.01;98437.88;5001224;28;20074;-71
2022/03/14 07:19:45;;;;;;;12.20;5.13;;;6.70;99.90;;;5.79;99.38;98430.25;5000438;28;20530;-71
2022/03/14 07:22:17;;;;;;;18.33;5.65;;;6.70;99.90;;;5.65;99.73;98451.00;5003226;28;20128;-71
2022/03/14 07:24:46;;;;;;;13.07;4.97;;;6.60;99.90;;;5.83;99.28;98439.66;4996690;28;20447;-71
2022/03/14 07:27:14;;;;;;;10.57;4.70;;;6.70;99.90;;;5.87;99.39;98449.06;4998324;28;20054;-71
2022/03/14 07:29:41;;;;;;;18.58;3.88;;;6.70;99.90;;;5.61;100.00;98469.91;5005107;28;20137;-71
2022/03/14 07:32:13;;;;;;;16.30;5.47;;;6.70;99.90;;;5.76;99.77;98476.66;5002592;28;20053;-71
2022/03/14 07:34:40;;;;;;;12.80;4.40;;;6.60;99.90;;;5.87;99.78;98473.13;5003406;28;20052;-72
2022/03/14 07:37:07;;;;;;;16.25;5.53;;;6.70;99.90;;;6.02;99.75;98476.44;5002264;28;20477;-71
2022/03/14 07:39:34;;;;;;;13.18;4.82;;;6.70;99.90;;;5.95;100.00;98474.78;5003941;28;20042;-72
2022/03/14 07:42:01;;;;;;;16.90;6.55;;;6.70;99.90;;;5.84;100.00;98482.63;5002154;28;20088;-72
2022/03/14 07:44:28;;;;;;;13.77;4.88;;;6.80;99.90;;;5.85;100.00;98485.16;5002201;28;20054;-71
2022/03/14 07:46:55;;;;;;;14.43;5.00;;;6.80;99.90;;;5.82;100.00;98490.34;4997757;28;20429;-71
2022/03/14 07:49:22;;;;;;;15.50;4.68;;;6.70;99.90;;;5.80;100.00;98502.38;4994220;28;20089;-72
2022/03/14 07:51:49;;;;;;;15.85;3.92;;;6.70;99.90;;;5.71;100.00;98502.47;5019330;28;20100;-71
2022/03/14 07:54:16;;;;;;;15.27;3.60;;;6.80;99.90;;;5.82;100.00;98502.38;4997144;28;20077;-71
2022/03/14 07:56:43;;;;;;;11.30;3.58;;;6.80;99.90;;;5.83;100.00;98489.47;5006048;28;20138;-70
2022/03/14 07:59:10;;;;;;;13.20;4.25;;;6.80;99.90;;;5.95;100.00;98506.56;5001092;28;20056;-71
2022/03/14 08:01:38;;;;;;;14.05;4.18;;;6.80;99.90;;;6.07;100.00;98503.03;4999338;28;20133;-72
2022/03/14 08:04:06;;;;;;;12.00;3.92;;;6.90;99.90;;;6.15;100.00;98505.53;5000814;28;20223;-71
2022/03/14 08:06:41;;;;;;;10.63;3.53;;;7.00;99.90;;;6.36;100.00;98512.19;5002086;28;20054;-71
2022/03/14 08:09:11;;;;;;;11.52;5.10;;;7.10;99.90;;;6.46;100.00;98513.81;5014000;28;20155;-72
2022/03/14 08:11:39;;;;;;;10.98;4.47;;;7.10;99.90;;;6.24;100.00;98524.31;4994712;28;20058;-72
2022/03/14 08:14:06;;;;;;;15.13;4.28;;;7.20;99.90;;;6.24;100.00;98516.59;4998839;28;20125;-72
2022/03/14 08:16:34;;;;;;;8.45;3.25;;;7.40;99.90;;;6.45;100.00;98512.09;4999403;28;20049;-72
2022/03/14 08:19:01;;;;;;;13.27;4.57;;;7.40;99.90;;;6.14;100.00;98534.78;5003743;28;20081;-71
2022/03/14 08:21:27;;;;;;;11.57;4.15;;;7.40;99.90;;;6.08;100.00;98522.78;4997533;28;20138;-71
2022/03/14 08:23:55;;;;;;;9.60;3.28;;;7.50;99.90;;;6.47;100.00;98534.41;5000093;28;20112;-72
2022/03/14 08:26:22;;;;;;;12.57;3.30;;;7.40;99.90;;;6.41;100.00;98526.75;5000346;28;20182;-71
2022/03/14 08:28:49;;;;;;;9.75;3.90;;;7.40;99.90;;;6.15;100.00;98536.47;5004516;28;20057;-72
2022/03/14 08:31:18;;;;;;;10.07;3.35;;;7.50;99.90;;;6.17;100.00;98540.72;5000679;28;20132;-71
2022/03/14 08:33:45;;;;;;;13.15;3.08;;;7.40;99.90;;;6.32;100.00;98532.00;4997629;28;20050;-71
2022/03/14 08:36:12;;;;;;;12.43;3.65;;;7.30;99.90;;;6.23;100.00;98545.00;4996922;28;20467;-71
2022/03/14 08:38:40;;;;;;;15.68;3.42;;;7.30;99.90;;;6.16;100.00;98546.78;5001926;28;20050;-71
2022/03/14 08:41:07;;;;;;;18.02;3.47;;;7.30;99.90;;;6.11;100.00;98538.19;4996401;28;20452;-71
2022/03/14 08:43:34;;;;;;;9.48;2.85;;;7.40;99.90;;;6.35;100.00;98551.75;5002400;28;20077;-71
2022/03/14 08:46:01;;;;;;;20.23;7.80;;;7.30;99.90;;;6.35;100.00;98556.91;4999497;28;20160;-70
2022/03/14 08:48:30;;;;;;;11.00;3.22;;;7.40;99.90;;;6.45;100.00;98554.22;4999847;28;20119;-70
2022/03/14 08:50:57;;;;;;;6.80;2.88;;;7.50;99.90;;;6.35;100.00;98560.34;5005404;28;20140;-70
2022/03/14 08:53:24;;;;;;;10.40;2.15;;;7.60;99.90;;;6.27;100.00;98573.31;5014011;28;20208;-71
2022/03/14 08:55:52;;;;;;;10.43;2.65;;;7.70;99.90;;;6.47;100.00;98556.78;5012701;28;20218;-71
2022/03/14 08:58:19;;;;;;;9.38;3.15;;;7.80;99.90;;;6.45;100.00;98558.50;4998397;28;20489;-71
2022/03/14 09:00:46;;;;;;;8.65;2.15;;;7.90;99.90;;;6.78;100.00;98565.03;5000382;28;20389;-71
2022/03/14 09:03:14;;;;;;;6.90;2.20;;;7.90;99.90;;;7.34;100.00;98565.19;5002018;28;20565;-71
2022/03/14 09:05:41;;;;;;;8.32;2.42;;;8.20;99.90;;;7.53;100.00;98565.78;5002437;28;20056;-71
2022/03/14 09:08:08;;;;;;;8.95;2.72;;;8.50;99.90;;;7.09;100.00;98556.91;5003294;28;20076;-70
2022/03/14 09:10:37;;;;;;;7.30;1.98;;;8.60;99.90;;;7.13;100.00;98528.44;5001752;28;20136;-71
2022/03/14 09:13:04;;;;;;;11.80;2.30;;;8.30;99.90;;;7.05;100.00;98558.69;5003678;28;20077;-71
2022/03/14 09:15:31;;;;;;;7.47;2.15;;;8.30;99.90;;;6.76;100.00;98582.25;5005549;28;20125;-71
2022/03/14 09:17:59;;;;;;;11.23;2.85;;;8.40;99.90;;;7.21;100.00;98574.00;5007210;28;20046;-71
2022/03/14 09:20:28;;;;;;;10.90;2.80;;;8.30;99.90;;;7.19;100.00;98581.75;5002830;28;20046;-71
2022/03/14 09:22:55;;;;;;;5.30;1.75;;;8.30;99.90;;;7.36;100.00;98566.00;5020031;28;20050;-71
2022/03/14 09:25:23;;;;;;;8.93;2.10;;;8.40;99.90;;;7.46;100.00;98553.84;5004616;28;20096;-71
2022/03/14 09:27:51;;;;;;;6.22;1.85;;;8.70;99.90;;;7.52;100.00;98564.91;5004634;28;20046;-71
2022/03/14 09:30:19;;;;;;;10.35;2.42;;;8.90;99.90;;;7.53;100.00;98565.78;5005205;28;20054;-71
2022/03/14 09:32:47;;;;;;;7.95;1.85;;;9.10;99.90;;;7.85;100.00;98559.28;5004352;28;20052;-71
2022/03/14 09:35:14;;;;;;;8.25;2.90;;;9.00;99.90;;;8.21;100.00;98552.66;5004727;28;20917;-72
2022/03/14 09:37:42;;;;;;;6.70;2.65;;;9.00;99.90;;;7.90;100.00;98558.31;5000831;28;20460;-72
2022/03/14 09:40:13;;;;;;;11.18;2.85;;;9.00;99.90;;;8.20;100.00;98556.09;5001319;28;20050;-72
2022/03/14 09:42:43;;;;;;;4.53;2.00;;;9.00;99.90;;;7.59;100.00;98562.25;5004938;28;20064;-73
2022/03/14 09:45:13;;;;;;;7.05;3.35;;;8.90;99.90;;;7.43;100.00;98580.53;5004383;28;20080;-73
2022/03/14 09:47:48;;;;;;;11.27;3.15;;;8.90;99.90;;;7.77;100.00;98576.63;5003240;28;20056;-73
2022/03/14 09:50:29;;;;;;;13.75;2.78;;;9.00;99.90;;;7.58;100.00;98586.41;5004104;28;20054;-72
2022/03/14 09:52:58;;;;;;;9.85;2.47;;;9.00;99.90;;;8.06;100.00;98589.94;5005836;28;20137;-72
2022/03/14 09:55:27;;;;;;;8.73;2.53;;;9.00;99.90;;;8.37;100.00;98581.69;5023063;28;20104;-73
2022/03/14 09:57:55;;;;;;;16.00;2.75;;;9.20;99.90;;;7.95;100.00;98603.03;4996976;28;20041;-73
2022/03/14 10:00:22;;;;;;;6.18;2.30;;;9.30;99.90;;;8.24;100.00;98595.69;5002264;28;20089;-72
2022/03/14 10:02:49;;;;;;;9.40;3.22;;;9.30;99.90;;;8.25;100.00;98603.41;5001931;28;20058;-72
2022/03/14 10:05:19;;;;;;;12.02;2.35;;;9.30;99.90;;;7.83;100.00;98599.81;5002592;28;20065;-71
2022/03/14 10:07:47;;;;;;;5.97;1.45;;;9.40;99.90;;;7.95;100.00;98605.63;4998476;28;20218;-71
2022/03/14 10:10:14;;;;;;;10.50;2.13;;;9.30;99.90;;;8.06;100.00;98602.88;5002806;28;20089;-70
2022/03/14 10:12:43;;;;;;;8.93;2.22;;;9.20;99.90;;;8.20;100.00;98614.72;5008919;28;20057;-72
2022/03/14 10:15:11;;;;;;;8.30;2.00;;;9.20;99.90;;;8.30;100.00;98613.69;5001103;28;20457;-72
2022/03/14 10:17:38;;;;;;;7.18;1.83;;;9.20;99.90;;;8.15;100.00;98615.66;5003172;28;20141;-73
2022/03/14 10:20:09;;;;;;;6.82;2.10;;;9.20;99.90;;;7.93;100.00;98620.31;5000584;28;20536;-72
2022/03/14 10:22:40;;;;;;;10.82;2.13;;;9.20;99.90;;;7.70;100.00;98625.81;4999329;28;20060;-71
2022/03/14 10:25:12;;;;;;;9.80;2.35;;;9.10;99.90;;;8.14;100.00;98616.53;4999703;28;20049;-72
2022/03/14 10:27:45;;;;;;;9.25;2.08;;;9.20;99.90;;;8.27;100.00;98619.78;5002611;28;20077;-73
2022/03/14 10:30:31;;;;;;;8.10;2.38;;;9.30;99.90;;;8.46;100.00;98616.91;5002260;28;20054;-73